Flims, Switzerland
Current Conditions -  °F | °C
As of 1:50 PM on Saturday 25 Oct 2014 (Local Time) from LSZS Reporting Station
Broken Clouds Broken Clouds  
Wind Chill: 39°   Ceiling: 5000
Heat Index: 39°   Visibility: 6mi
Dew Point: 32°   Wind: 2mph
Humidity: 75%   Direction: 40°NE
Pressure: 30.15"   Gusts: NA
Location:  46.84°N, 9.28°E
Report Text: LSZS 251150Z 04002KT 9999 BKN050 04/M00 Q1021
Loading
Personal Weather Stations






























Interactive Weather Map
Tropical Storm Tracking
New forecast layout! Learn more

10-Day Weather Forecast

Advertisements
Track Severe Weather on mobile